createdAt,value
2022-12-22T00:00:00.000Z,81.06
2022-12-22T00:15:00.000Z,80.72
2022-12-22T00:30:00.000Z,81.37
2022-12-22T00:45:00.000Z,83.31
2022-12-22T01:00:00.000Z,81.97
2022-12-22T01:15:00.000Z,81.44
2022-12-22T01:30:00.000Z,81.55
2022-12-22T01:45:00.000Z,81.5
2022-12-22T02:00:00.000Z,80.99
2022-12-22T02:15:00.000Z,80.96
2022-12-22T02:30:00.000Z,81.02
2022-12-22T02:45:00.000Z,82.29
2022-12-22T03:15:00.000Z,82.26
2022-12-22T03:15:00.000Z,82.79
2022-12-22T03:30:00.000Z,83.91
2022-12-22T03:45:00.000Z,83.88
2022-12-22T04:00:00.000Z,83.58
2022-12-22T04:15:00.000Z,83.13
2022-12-22T04:30:00.000Z,82.83
2022-12-22T04:45:00.000Z,82.44
2022-12-22T05:00:00.000Z,82.02
2022-12-22T05:15:00.000Z,81.67
2022-12-22T05:30:00.000Z,81.48
2022-12-22T05:45:00.000Z,81.04
2022-12-22T06:00:00.000Z,80.86
2022-12-22T06:15:00.000Z,80.98
2022-12-22T06:30:00.000Z,81.67
2022-12-22T06:45:00.000Z,82.62
2022-12-22T07:00:00.000Z,83.49
2022-12-22T07:15:00.000Z,82.99
2022-12-22T07:30:00.000Z,82.08
2022-12-22T07:45:00.000Z,81.4
2022-12-22T08:00:00.000Z,81.05
2022-12-22T08:15:00.000Z,81.03
2022-12-22T08:30:00.000Z,80.72
2022-12-22T08:45:00.000Z,79.76
2022-12-22T09:00:00.000Z,78.02
2022-12-22T09:15:00.000Z,73.73
2022-12-22T09:30:00.000Z,71.64
2022-12-22T09:45:00.000Z,69.85
2022-12-22T10:00:00.000Z,67.51
2022-12-22T10:15:00.000Z,67.07
2022-12-22T10:30:00.000Z,67.16
2022-12-22T10:45:00.000Z,67.86
2022-12-22T11:00:00.000Z,67.87
2022-12-22T11:15:00.000Z,65.02
2022-12-22T11:30:00.000Z,61.64
2022-12-22T11:45:00.000Z,64.15
2022-12-22T12:00:00.000Z,63.79
2022-12-22T12:15:00.000Z,63.42
2022-12-22T12:30:00.000Z,68.49
2022-12-22T12:45:00.000Z,71.58
2022-12-22T13:00:00.000Z,70.99
2022-12-22T13:15:00.000Z,73.77
2022-12-22T13:30:00.000Z,75.41
2022-12-22T13:45:00.000Z,75.42
2022-12-22T14:00:00.000Z,76.4
2022-12-22T14:15:00.000Z,76.12
2022-12-22T14:30:00.000Z,73.99
2022-12-22T14:45:00.000Z,74.69
2022-12-22T15:00:00.000Z,76.07
2022-12-22T15:15:00.000Z,76.82
2022-12-22T15:30:00.000Z,77.18
2022-12-22T15:45:00.000Z,78.13
2022-12-22T16:00:00.000Z,78.89
2022-12-22T16:15:00.000Z,78.89
2022-12-22T16:30:00.000Z,78.68
2022-12-22T16:45:00.000Z,77.42
2022-12-22T17:00:00.000Z,76.4
2022-12-22T17:15:00.000Z,77.25
2022-12-22T17:30:00.000Z,78.31
2022-12-22T17:45:00.000Z,78.32
2022-12-22T18:00:00.000Z,79.41
2022-12-22T18:15:00.000Z,80.35
2022-12-22T18:30:00.000Z,80.82
2022-12-22T18:45:00.000Z,81.27
2022-12-22T19:00:00.000Z,81.59
2022-12-22T19:15:00.000Z,82.22
2022-12-22T19:30:00.000Z,81.33
2022-12-22T19:45:00.000Z,81.15
2022-12-22T20:00:00.000Z,81.67
2022-12-22T20:15:00.000Z,81.29
2022-12-22T20:30:00.000Z,80.76
2022-12-22T20:45:00.000Z,79.95
2022-12-22T21:00:00.000Z,79.03
2022-12-22T21:15:00.000Z,77.76
2022-12-22T21:30:00.000Z,77.17
2022-12-22T21:45:00.000Z,77.21
2022-12-22T22:00:00.000Z,76.7
2022-12-22T22:15:00.000Z,76.5
2022-12-22T22:30:00.000Z,76.67
2022-12-22T22:45:00.000Z,76.84
2022-12-22T23:00:00.000Z,77.19
2022-12-22T23:15:00.000Z,76.65
2022-12-22T23:30:00.000Z,76.63
2022-12-22T23:45:00.000Z,77.23
